sensor_id;sensor_type;location;lat;lon;timestamp;temperature;humidity
78992;DHT22;72820;44.838;37.674;2024-03-08T00:00:35;1.93;88.05
78992;DHT22;72820;44.838;37.674;2024-03-08T00:01:39;1.95;88.05
78992;DHT22;72820;44.838;37.674;2024-03-08T00:02:43;1.99;87.90
78992;DHT22;72820;44.838;37.674;2024-03-08T00:03:45;1.95;87.66
78992;DHT22;72820;44.838;37.674;2024-03-08T00:04:46;1.92;87.46
78992;DHT22;72820;44.838;37.674;2024-03-08T00:05:47;1.91;87.48
78992;DHT22;72820;44.838;37.674;2024-03-08T00:06:49;1.92;87.53
78992;DHT22;72820;44.838;37.674;2024-03-08T00:07:51;1.93;87.62
78992;DHT22;72820;44.838;37.674;2024-03-08T00:08:54;1.93;87.62
78992;DHT22;72820;44.838;37.674;2024-03-08T00:09:55;1.98;87.80
78992;DHT22;72820;44.838;37.674;2024-03-08T00:10:56;2.01;87.77
78992;DHT22;72820;44.838;37.674;2024-03-08T00:11:58;2.03;87.60
78992;DHT22;72820;44.838;37.674;2024-03-08T00:12:59;2.05;87.53
78992;DHT22;72820;44.838;37.674;2024-03-08T00:14:01;2.05;87.33
78992;DHT22;72820;44.838;37.674;2024-03-08T00:15:03;2.06;87.34
78992;DHT22;72820;44.838;37.674;2024-03-08T00:16:04;2.06;87.34
78992;DHT22;72820;44.838;37.674;2024-03-08T00:17:06;2.06;87.16
78992;DHT22;72820;44.838;37.674;2024-03-08T00:18:07;2.06;87.16
78992;DHT22;72820;44.838;37.674;2024-03-08T00:19:08;2.09;87.17
78992;DHT22;72820;44.838;37.674;2024-03-08T00:20:10;2.09;87.04
78992;DHT22;72820;44.838;37.674;2024-03-08T00:21:12;2.06;86.91
78992;DHT22;72820;44.838;37.674;2024-03-08T00:22:13;2.09;86.89
78992;DHT22;72820;44.838;37.674;2024-03-08T00:23:15;2.07;86.99
78992;DHT22;72820;44.838;37.674;2024-03-08T00:24:16;2.12;87.00
78992;DHT22;72820;44.838;37.674;2024-03-08T00:25:18;2.09;86.79
78992;DHT22;72820;44.838;37.674;2024-03-08T00:26:19;2.07;86.77
78992;DHT22;72820;44.838;37.674;2024-03-08T00:27:21;2.07;86.94
78992;DHT22;72820;44.838;37.674;2024-03-08T00:28:22;2.12;87.15
78992;DHT22;72820;44.838;37.674;2024-03-08T00:29:26;2.12;86.99
78992;DHT22;72820;44.838;37.674;2024-03-08T00:30:28;2.12;87.05
78992;DHT22;72820;44.838;37.674;2024-03-08T00:31:30;2.17;87.05
78992;DHT22;72820;44.838;37.674;2024-03-08T00:32:34;2.17;87.01
78992;DHT22;72820;44.838;37.674;2024-03-08T00:33:37;2.14;86.76
78992;DHT22;72820;44.838;37.674;2024-03-08T00:34:38;2.13;86.59
78992;DHT22;72820;44.838;37.674;2024-03-08T00:35:39;2.13;86.60
78992;DHT22;72820;44.838;37.674;2024-03-08T00:36:41;2.14;86.61
78992;DHT22;72820;44.838;37.674;2024-03-08T00:37:42;2.14;86.67
78992;DHT22;72820;44.838;37.674;2024-03-08T00:38:43;2.17;86.75
78992;DHT22;72820;44.838;37.674;2024-03-08T00:39:44;2.17;86.87
78992;DHT22;72820;44.838;37.674;2024-03-08T00:40:46;2.19;86.68
78992;DHT22;72820;44.838;37.674;2024-03-08T00:41:47;2.19;86.65
78992;DHT22;72820;44.838;37.674;2024-03-08T00:42:49;2.19;86.63
78992;DHT22;72820;44.838;37.674;2024-03-08T00:43:50;2.20;86.67
78992;DHT22;72820;44.838;37.674;2024-03-08T00:44:52;2.24;86.53
78992;DHT22;72820;44.838;37.674;2024-03-08T00:45:53;2.24;86.50
78992;DHT22;72820;44.838;37.674;2024-03-08T00:46:54;2.17;86.23
78992;DHT22;72820;44.838;37.674;2024-03-08T00:47:56;2.17;86.23
78992;DHT22;72820;44.838;37.674;2024-03-08T00:48:57;2.20;86.49
78992;DHT22;72820;44.838;37.674;2024-03-08T00:49:58;2.20;86.55
78992;DHT22;72820;44.838;37.674;2024-03-08T00:50:59;2.17;86.49
78992;DHT22;72820;44.838;37.674;2024-03-08T00:52:05;2.19;86.47
78992;DHT22;72820;44.838;37.674;2024-03-08T00:53:08;2.16;86.54
78992;DHT22;72820;44.838;37.674;2024-03-08T00:54:11;2.14;86.53
78992;DHT22;72820;44.838;37.674;2024-03-08T00:55:13;2.14;86.47
78992;DHT22;72820;44.838;37.674;2024-03-08T00:56:14;2.12;86.40
78992;DHT22;72820;44.838;37.674;2024-03-08T00:57:15;2.07;86.65
78992;DHT22;72820;44.838;37.674;2024-03-08T00:58:17;2.09;86.85
78992;DHT22;72820;44.838;37.674;2024-03-08T00:59:18;2.12;86.80
78992;DHT22;72820;44.838;37.674;2024-03-08T01:00:19;2.10;86.61
78992;DHT22;72820;44.838;37.674;2024-03-08T01:01:22;2.06;86.81
78992;DHT22;72820;44.838;37.674;2024-03-08T01:02:25;2.05;86.92
78992;DHT22;72820;44.838;37.674;2024-03-08T01:03:27;2.06;86.92
78992;DHT22;72820;44.838;37.674;2024-03-08T01:04:28;2.06;87.00
78992;DHT22;72820;44.838;37.674;2024-03-08T01:05:33;2.06;87.04
78992;DHT22;72820;44.838;37.674;2024-03-08T01:06:36;2.10;87.06
78992;DHT22;72820;44.838;37.674;2024-03-08T01:07:38;2.06;86.83
78992;DHT22;72820;44.838;37.674;2024-03-08T01:08:39;2.05;87.02
78992;DHT22;72820;44.838;37.674;2024-03-08T01:09:43;2.07;87.27
78992;DHT22;72820;44.838;37.674;2024-03-08T01:10:44;2.13;87.23
78992;DHT22;72820;44.838;37.674;2024-03-08T01:11:45;2.09;86.91
78992;DHT22;72820;44.838;37.674;2024-03-08T01:12:47;2.09;86.93
78992;DHT22;72820;44.838;37.674;2024-03-08T01:13:48;2.07;87.00
78992;DHT22;72820;44.838;37.674;2024-03-08T01:14:50;2.10;87.09
78992;DHT22;72820;44.838;37.674;2024-03-08T01:15:51;2.14;86.95
78992;DHT22;72820;44.838;37.674;2024-03-08T01:16:52;2.12;87.00
78992;DHT22;72820;44.838;37.674;2024-03-08T01:17:55;2.09;86.78
78992;DHT22;72820;44.838;37.674;2024-03-08T01:18:57;2.09;86.94
78992;DHT22;72820;44.838;37.674;2024-03-08T01:19:58;2.10;87.06
78992;DHT22;72820;44.838;37.674;2024-03-08T01:20:59;2.09;86.80
78992;DHT22;72820;44.838;37.674;2024-03-08T01:22:01;2.06;86.73
78992;DHT22;72820;44.838;37.674;2024-03-08T01:23:03;2.01;86.82
78992;DHT22;72820;44.838;37.674;2024-03-08T01:24:06;2.01;87.08
78992;DHT22;72820;44.838;37.674;2024-03-08T01:25:08;2.02;87.03
78992;DHT22;72820;44.838;37.674;2024-03-08T01:26:09;2.02;87.17
78992;DHT22;72820;44.838;37.674;2024-03-08T01:27:11;2.01;87.21
78992;DHT22;72820;44.838;37.674;2024-03-08T01:28:13;2.05;87.25
78992;DHT22;72820;44.838;37.674;2024-03-08T01:29:14;2.07;87.27
78992;DHT22;72820;44.838;37.674;2024-03-08T01:30:16;2.10;87.36
78992;DHT22;72820;44.838;37.674;2024-03-08T01:31:18;2.10;87.13
78992;DHT22;72820;44.838;37.674;2024-03-08T01:32:19;2.14;87.28
78992;DHT22;72820;44.838;37.674;2024-03-08T01:33:24;2.20;87.21
78992;DHT22;72820;44.838;37.674;2024-03-08T01:34:26;2.20;86.87
78992;DHT22;72820;44.838;37.674;2024-03-08T01:35:29;2.20;86.75
78992;DHT22;72820;44.838;37.674;2024-03-08T01:36:30;2.17;86.63
78992;DHT22;72820;44.838;37.674;2024-03-08T01:37:32;2.14;86.63
78992;DHT22;72820;44.838;37.674;2024-03-08T01:38:33;2.17;86.67
78992;DHT22;72820;44.838;37.674;2024-03-08T01:39:37;2.16;86.73
78992;DHT22;72820;44.838;37.674;2024-03-08T01:40:38;2.12;86.68
78992;DHT22;72820;44.838;37.674;2024-03-08T01:41:42;2.16;86.87
78992;DHT22;72820;44.838;37.674;2024-03-08T01:42:43;2.19;86.98
78992;DHT22;72820;44.838;37.674;2024-03-08T01:43:45;2.20;86.95
78992;DHT22;72820;44.838;37.674;2024-03-08T01:44:47;2.19;86.59
78992;DHT22;72820;44.838;37.674;2024-03-08T01:45:48;2.17;86.44
78992;DHT22;72820;44.838;37.674;2024-03-08T01:46:51;2.17;86.59
78992;DHT22;72820;44.838;37.674;2024-03-08T01:47:53;2.19;86.64
78992;DHT22;72820;44.838;37.674;2024-03-08T01:48:55;2.19;86.53
78992;DHT22;72820;44.838;37.674;2024-03-08T01:49:57;2.19;86.56
78992;DHT22;72820;44.838;37.674;2024-03-08T01:50:59;2.19;86.51
78992;DHT22;72820;44.838;37.674;2024-03-08T01:52:01;2.17;86.49
78992;DHT22;72820;44.838;37.674;2024-03-08T01:53:03;2.21;86.66
78992;DHT22;72820;44.838;37.674;2024-03-08T01:54:06;2.23;86.59
78992;DHT22;72820;44.838;37.674;2024-03-08T01:55:08;2.24;86.52
78992;DHT22;72820;44.838;37.674;2024-03-08T01:56:09;2.23;86.30
78992;DHT22;72820;44.838;37.674;2024-03-08T01:57:11;2.20;86.27
78992;DHT22;72820;44.838;37.674;2024-03-08T01:58:13;2.21;86.42
78992;DHT22;72820;44.838;37.674;2024-03-08T01:59:17;2.23;86.52
78992;DHT22;72820;44.838;37.674;2024-03-08T02:00:20;2.26;86.45
78992;DHT22;72820;44.838;37.674;2024-03-08T02:01:21;2.21;86.37
78992;DHT22;72820;44.838;37.674;2024-03-08T02:02:23;2.21;86.59
78992;DHT22;72820;44.838;37.674;2024-03-08T02:03:24;2.26;86.72
78992;DHT22;72820;44.838;37.674;2024-03-08T02:04:26;2.26;86.52
78992;DHT22;72820;44.838;37.674;2024-03-08T02:05:27;2.27;86.36
78992;DHT22;72820;44.838;37.674;2024-03-08T02:06:29;2.27;86.47
78992;DHT22;72820;44.838;37.674;2024-03-08T02:07:30;2.33;86.47
78992;DHT22;72820;44.838;37.674;2024-03-08T02:08:32;2.29;86.23
78992;DHT22;72820;44.838;37.674;2024-03-08T02:09:35;2.27;86.28
78992;DHT22;72820;44.838;37.674;2024-03-08T02:10:36;2.27;86.54
78992;DHT22;72820;44.838;37.674;2024-03-08T02:11:37;2.30;86.52
78992;DHT22;72820;44.838;37.674;2024-03-08T02:12:39;2.24;86.22
78992;DHT22;72820;44.838;37.674;2024-03-08T02:13:40;2.26;86.45
78992;DHT22;72820;44.838;37.674;2024-03-08T02:14:41;2.27;86.65
78992;DHT22;72820;44.838;37.674;2024-03-08T02:15:57;2.24;86.57
78992;DHT22;72820;44.838;37.674;2024-03-08T02:17:01;2.27;86.57
78992;DHT22;72820;44.838;37.674;2024-03-08T02:18:03;2.26;86.51
78992;DHT22;72820;44.838;37.674;2024-03-08T02:19:04;2.24;86.50
78992;DHT22;72820;44.838;37.674;2024-03-08T02:20:05;2.24;86.60
78992;DHT22;72820;44.838;37.674;2024-03-08T02:21:07;2.29;86.71
78992;DHT22;72820;44.838;37.674;2024-03-08T02:22:09;2.26;86.71
78992;DHT22;72820;44.838;37.674;2024-03-08T02:23:10;2.27;86.76
78992;DHT22;72820;44.838;37.674;2024-03-08T02:24:12;2.26;86.70
78992;DHT22;72820;44.838;37.674;2024-03-08T02:25:13;2.23;86.60
78992;DHT22;72820;44.838;37.674;2024-03-08T02:26:15;2.26;86.73
78992;DHT22;72820;44.838;37.674;2024-03-08T02:27:23;2.26;86.80
78992;DHT22;72820;44.838;37.674;2024-03-08T02:28:25;2.26;86.68
78992;DHT22;72820;44.838;37.674;2024-03-08T02:29:27;2.24;86.59
78992;DHT22;72820;44.838;37.674;2024-03-08T02:30:28;2.26;86.79
78992;DHT22;72820;44.838;37.674;2024-03-08T02:31:30;2.26;86.86
78992;DHT22;72820;44.838;37.674;2024-03-08T02:32:32;2.30;86.78
78992;DHT22;72820;44.838;37.674;2024-03-08T02:33:33;2.27;86.81
78992;DHT22;72820;44.838;37.674;2024-03-08T02:34:35;2.29;86.82
78992;DHT22;72820;44.838;37.674;2024-03-08T02:35:36;2.30;86.56
78992;DHT22;72820;44.838;37.674;2024-03-08T02:36:37;2.31;86.58
78992;DHT22;72820;44.838;37.674;2024-03-08T02:37:39;2.33;86.68
78992;DHT22;72820;44.838;37.674;2024-03-08T02:38:40;2.34;86.45
78992;DHT22;72820;44.838;37.674;2024-03-08T02:39:43;2.30;86.29
78992;DHT22;72820;44.838;37.674;2024-03-08T02:40:45;2.27;86.55
78992;DHT22;72820;44.838;37.674;2024-03-08T02:41:47;2.30;86.65
78992;DHT22;72820;44.838;37.674;2024-03-08T02:42:48;2.30;86.62
78992;DHT22;72820;44.838;37.674;2024-03-08T02:43:49;2.30;86.50
78992;DHT22;72820;44.838;37.674;2024-03-08T02:44:51;2.30;86.51
78992;DHT22;72820;44.838;37.674;2024-03-08T02:45:52;2.30;86.57
78992;DHT22;72820;44.838;37.674;2024-03-08T02:46:55;2.33;86.70
78992;DHT22;72820;44.838;37.674;2024-03-08T02:47:56;2.33;86.81
78992;DHT22;72820;44.838;37.674;2024-03-08T02:48:57;2.33;86.73
78992;DHT22;72820;44.838;37.674;2024-03-08T02:49:59;2.34;86.64
78992;DHT22;72820;44.838;37.674;2024-03-08T02:51:00;2.31;86.45
78992;DHT22;72820;44.838;37.674;2024-03-08T02:52:03;2.31;86.51
78992;DHT22;72820;44.838;37.674;2024-03-08T02:53:06;2.29;86.49
78992;DHT22;72820;44.838;37.674;2024-03-08T02:54:07;2.27;86.65
78992;DHT22;72820;44.838;37.674;2024-03-08T02:55:10;2.24;86.74
78992;DHT22;72820;44.838;37.674;2024-03-08T02:56:17;2.23;86.80
78992;DHT22;72820;44.838;37.674;2024-03-08T02:57:18;2.21;86.66
78992;DHT22;72820;44.838;37.674;2024-03-08T02:58:20;2.21;86.81
78992;DHT22;72820;44.838;37.674;2024-03-08T02:59:21;2.19;86.75
78992;DHT22;72820;44.838;37.674;2024-03-08T03:00:23;2.17;86.73
78992;DHT22;72820;44.838;37.674;2024-03-08T03:01:25;2.17;86.93
78992;DHT22;72820;44.838;37.674;2024-03-08T03:02:27;2.17;86.99
78992;DHT22;72820;44.838;37.674;2024-03-08T03:03:28;2.20;87.09
78992;DHT22;72820;44.838;37.674;2024-03-08T03:04:30;2.21;87.13
78992;DHT22;72820;44.838;37.674;2024-03-08T03:05:31;2.24;87.23
78992;DHT22;72820;44.838;37.674;2024-03-08T03:06:32;2.24;87.14
78992;DHT22;72820;44.838;37.674;2024-03-08T03:07:35;2.29;87.21
78992;DHT22;72820;44.838;37.674;2024-03-08T03:08:36;2.26;86.99
78992;DHT22;72820;44.838;37.674;2024-03-08T03:09:38;2.29;86.98
78992;DHT22;72820;44.838;37.674;2024-03-08T03:10:39;2.26;86.80
78992;DHT22;72820;44.838;37.674;2024-03-08T03:11:44;2.26;86.69
78992;DHT22;72820;44.838;37.674;2024-03-08T03:12:45;2.26;86.62
78992;DHT22;72820;44.838;37.674;2024-03-08T03:13:47;2.26;86.59
78992;DHT22;72820;44.838;37.674;2024-03-08T03:14:49;2.21;86.26
78992;DHT22;72820;44.838;37.674;2024-03-08T03:15:50;2.21;86.31
78992;DHT22;72820;44.838;37.674;2024-03-08T03:16:52;2.23;86.56
78992;DHT22;72820;44.838;37.674;2024-03-08T03:17:54;2.20;86.67
78992;DHT22;72820;44.838;37.674;2024-03-08T03:18:56;2.21;86.42
78992;DHT22;72820;44.838;37.674;2024-03-08T03:19:59;2.19;86.49
78992;DHT22;72820;44.838;37.674;2024-03-08T03:21:10;2.23;86.74
78992;DHT22;72820;44.838;37.674;2024-03-08T03:22:11;2.24;86.68
78992;DHT22;72820;44.838;37.674;2024-03-08T03:23:12;2.20;86.31
78992;DHT22;72820;44.838;37.674;2024-03-08T03:24:21;2.19;86.48
78992;DHT22;72820;44.838;37.674;2024-03-08T03:25:24;2.14;86.33
78992;DHT22;72820;44.838;37.674;2024-03-08T03:26:34;2.14;86.34
78992;DHT22;72820;44.838;37.674;2024-03-08T03:27:35;2.16;86.39
78992;DHT22;72820;44.838;37.674;2024-03-08T03:28:37;2.17;86.29
78992;DHT22;72820;44.838;37.674;2024-03-08T03:29:41;2.20;86.48
78992;DHT22;72820;44.838;37.674;2024-03-08T03:30:46;2.20;86.44
78992;DHT22;72820;44.838;37.674;2024-03-08T03:31:47;2.23;86.45
78992;DHT22;72820;44.838;37.674;2024-03-08T03:32:49;2.20;86.02
78992;DHT22;72820;44.838;37.674;2024-03-08T03:33:51;2.19;86.17
78992;DHT22;72820;44.838;37.674;2024-03-08T03:34:53;2.14;86.32
78992;DHT22;72820;44.838;37.674;2024-03-08T03:35:54;2.20;86.26
78992;DHT22;72820;44.838;37.674;2024-03-08T03:36:55;2.19;86.11
78992;DHT22;72820;44.838;37.674;2024-03-08T03:37:56;2.20;86.19
78992;DHT22;72820;44.838;37.674;2024-03-08T03:39:10;2.17;86.24
78992;DHT22;72820;44.838;37.674;2024-03-08T03:40:13;2.17;86.09
78992;DHT22;72820;44.838;37.674;2024-03-08T03:41:15;2.17;85.99
78992;DHT22;72820;44.838;37.674;2024-03-08T03:42:17;2.14;85.94
78992;DHT22;72820;44.838;37.674;2024-03-08T03:43:19;2.16;85.82
78992;DHT22;72820;44.838;37.674;2024-03-08T03:44:20;2.09;85.71
78992;DHT22;72820;44.838;37.674;2024-03-08T03:45:22;2.09;85.90
78992;DHT22;72820;44.838;37.674;2024-03-08T03:46:23;2.06;85.80
78992;DHT22;72820;44.838;37.674;2024-03-08T03:47:24;2.03;85.88
78992;DHT22;72820;44.838;37.674;2024-03-08T03:48:25;2.03;85.89
78992;DHT22;72820;44.838;37.674;2024-03-08T03:49:27;2.03;86.03
78992;DHT22;72820;44.838;37.674;2024-03-08T03:50:30;2.05;85.89
78992;DHT22;72820;44.838;37.674;2024-03-08T03:51:31;2.02;86.06
78992;DHT22;72820;44.838;37.674;2024-03-08T03:52:33;2.02;86.21
78992;DHT22;72820;44.838;37.674;2024-03-08T03:53:34;2.03;86.15
78992;DHT22;72820;44.838;37.674;2024-03-08T03:54:36;2.02;85.91
78992;DHT22;72820;44.838;37.674;2024-03-08T03:55:37;1.99;86.10
78992;DHT22;72820;44.838;37.674;2024-03-08T03:56:39;1.96;86.00
78992;DHT22;72820;44.838;37.674;2024-03-08T03:57:41;1.95;85.86
78992;DHT22;72820;44.838;37.674;2024-03-08T03:58:42;1.98;86.06
78992;DHT22;72820;44.838;37.674;2024-03-08T03:59:43;1.98;86.01
78992;DHT22;72820;44.838;37.674;2024-03-08T04:00:44;1.96;86.02
78992;DHT22;72820;44.838;37.674;2024-03-08T04:01:46;1.95;85.98
78992;DHT22;72820;44.838;37.674;2024-03-08T04:02:47;1.95;86.11
78992;DHT22;72820;44.838;37.674;2024-03-08T04:03:48;1.93;86.14
78992;DHT22;72820;44.838;37.674;2024-03-08T04:04:50;1.96;86.00
78992;DHT22;72820;44.838;37.674;2024-03-08T04:05:51;1.93;86.07
78992;DHT22;72820;44.838;37.674;2024-03-08T04:06:53;1.98;86.21
78992;DHT22;72820;44.838;37.674;2024-03-08T04:07:54;1.99;85.92
78992;DHT22;72820;44.838;37.674;2024-03-08T04:08:55;1.93;85.81
78992;DHT22;72820;44.838;37.674;2024-03-08T04:09:56;1.96;85.89
78992;DHT22;72820;44.838;37.674;2024-03-08T04:10:58;1.95;85.91
78992;DHT22;72820;44.838;37.674;2024-03-08T04:11:59;1.95;85.56
78992;DHT22;72820;44.838;37.674;2024-03-08T04:13:02;1.89;85.60
78992;DHT22;72820;44.838;37.674;2024-03-08T04:14:04;1.89;85.81
78992;DHT22;72820;44.838;37.674;2024-03-08T04:15:06;1.87;85.69
78992;DHT22;72820;44.838;37.674;2024-03-08T04:16:11;1.85;85.73
78992;DHT22;72820;44.838;37.674;2024-03-08T04:17:13;1.85;85.75
78992;DHT22;72820;44.838;37.674;2024-03-08T04:18:14;1.82;85.60
78992;DHT22;72820;44.838;37.674;2024-03-08T04:19:15;1.81;85.87
78992;DHT22;72820;44.838;37.674;2024-03-08T04:20:16;1.82;85.94
78992;DHT22;72820;44.838;37.674;2024-03-08T04:21:18;1.81;85.81
78992;DHT22;72820;44.838;37.674;2024-03-08T04:22:22;1.82;86.03
78992;DHT22;72820;44.838;37.674;2024-03-08T04:23:23;1.82;85.84
78992;DHT22;72820;44.838;37.674;2024-03-08T04:24:25;1.82;85.87
78992;DHT22;72820;44.838;37.674;2024-03-08T04:25:26;1.79;85.87
78992;DHT22;72820;44.838;37.674;2024-03-08T04:26:28;1.81;86.07
78992;DHT22;72820;44.838;37.674;2024-03-08T04:27:29;1.85;86.19
78992;DHT22;72820;44.838;37.674;2024-03-08T04:28:31;1.85;86.04
78992;DHT22;72820;44.838;37.674;2024-03-08T04:29:32;1.83;85.72
78992;DHT22;72820;44.838;37.674;2024-03-08T04:30:35;1.83;85.84
78992;DHT22;72820;44.838;37.674;2024-03-08T04:31:38;1.83;85.97
78992;DHT22;72820;44.838;37.674;2024-03-08T04:32:39;1.87;85.94
78992;DHT22;72820;44.838;37.674;2024-03-08T04:33:42;1.83;85.83
78992;DHT22;72820;44.838;37.674;2024-03-08T04:34:43;1.79;85.52
78992;DHT22;72820;44.838;37.674;2024-03-08T04:35:45;1.78;85.86
78992;DHT22;72820;44.838;37.674;2024-03-08T04:36:48;1.81;85.98
78992;DHT22;72820;44.838;37.674;2024-03-08T04:37:49;1.83;85.82
78992;DHT22;72820;44.838;37.674;2024-03-08T04:38:51;1.81;85.67
78992;DHT22;72820;44.838;37.674;2024-03-08T04:39:52;1.82;85.86
78992;DHT22;72820;44.838;37.674;2024-03-08T04:40:53;1.83;85.80
78992;DHT22;72820;44.838;37.674;2024-03-08T04:41:59;1.79;85.74
78992;DHT22;72820;44.838;37.674;2024-03-08T04:43:02;1.81;85.82
78992;DHT22;72820;44.838;37.674;2024-03-08T04:44:03;1.82;85.77
78992;DHT22;72820;44.838;37.674;2024-03-08T04:45:05;1.83;85.68
78992;DHT22;72820;44.838;37.674;2024-03-08T04:46:09;1.86;85.78
78992;DHT22;72820;44.838;37.674;2024-03-08T04:47:10;1.87;85.91
78992;DHT22;72820;44.838;37.674;2024-03-08T04:48:12;1.89;85.91
78992;DHT22;72820;44.838;37.674;2024-03-08T04:49:13;1.89;85.67
78992;DHT22;72820;44.838;37.674;2024-03-08T04:50:14;1.92;85.81
78992;DHT22;72820;44.838;37.674;2024-03-08T04:51:16;1.89;85.56
78992;DHT22;72820;44.838;37.674;2024-03-08T04:52:17;1.91;85.84
78992;DHT22;72820;44.838;37.674;2024-03-08T04:53:19;1.93;85.76
78992;DHT22;72820;44.838;37.674;2024-03-08T04:54:20;1.95;85.75
78992;DHT22;72820;44.838;37.674;2024-03-08T04:55:21;1.99;86.00
78992;DHT22;72820;44.838;37.674;2024-03-08T04:56:23;2.06;86.04
78992;DHT22;72820;44.838;37.674;2024-03-08T04:57:25;2.03;85.41
78992;DHT22;72820;44.838;37.674;2024-03-08T04:58:26;1.99;85.54
78992;DHT22;72820;44.838;37.674;2024-03-08T04:59:28;2.02;85.79
78992;DHT22;72820;44.838;37.674;2024-03-08T05:00:29;2.06;85.70
78992;DHT22;72820;44.838;37.674;2024-03-08T05:01:31;2.07;85.32
78992;DHT22;72820;44.838;37.674;2024-03-08T05:02:32;2.06;85.13
78992;DHT22;72820;44.838;37.674;2024-03-08T05:03:33;2.02;84.85
78992;DHT22;72820;44.838;37.674;2024-03-08T05:04:36;1.99;85.07
78992;DHT22;72820;44.838;37.674;2024-03-08T05:05:37;1.99;85.26
78992;DHT22;72820;44.838;37.674;2024-03-08T05:06:39;2.01;85.12
78992;DHT22;72820;44.838;37.674;2024-03-08T05:07:40;2.01;85.26
78992;DHT22;72820;44.838;37.674;2024-03-08T05:08:42;2.03;85.49
78992;DHT22;72820;44.838;37.674;2024-03-08T05:09:43;2.03;85.15
78992;DHT22;72820;44.838;37.674;2024-03-08T05:10:52;2.02;85.30
78992;DHT22;72820;44.838;37.674;2024-03-08T05:11:53;2.06;85.51
78992;DHT22;72820;44.838;37.674;2024-03-08T05:12:54;2.10;85.46
78992;DHT22;72820;44.838;37.674;2024-03-08T05:13:56;2.09;85.31
78992;DHT22;72820;44.838;37.674;2024-03-08T05:14:59;2.13;85.37
78992;DHT22;72820;44.838;37.674;2024-03-08T05:16:01;2.14;85.25
78992;DHT22;72820;44.838;37.674;2024-03-08T05:17:02;2.21;85.52
78992;DHT22;72820;44.838;37.674;2024-03-08T05:18:04;2.24;85.55
78992;DHT22;72820;44.838;37.674;2024-03-08T05:19:06;2.27;85.24
78992;DHT22;72820;44.838;37.674;2024-03-08T05:20:09;2.27;84.59
78992;DHT22;72820;44.838;37.674;2024-03-08T05:21:13;2.23;84.47
78992;DHT22;72820;44.838;37.674;2024-03-08T05:22:14;2.23;84.56
78992;DHT22;72820;44.838;37.674;2024-03-08T05:23:16;2.29;84.87
78992;DHT22;72820;44.838;37.674;2024-03-08T05:24:18;2.31;84.71
78992;DHT22;72820;44.838;37.674;2024-03-08T05:25:19;2.30;84.63
78992;DHT22;72820;44.838;37.674;2024-03-08T05:26:21;2.34;84.48
78992;DHT22;72820;44.838;37.674;2024-03-08T05:27:23;2.33;84.42
78992;DHT22;72820;44.838;37.674;2024-03-08T05:28:24;2.38;84.50
78992;DHT22;72820;44.838;37.674;2024-03-08T05:29:26;2.38;84.43
78992;DHT22;72820;44.838;37.674;2024-03-08T05:30:27;2.40;84.27
78992;DHT22;72820;44.838;37.674;2024-03-08T05:31:57;2.41;84.33
78992;DHT22;72820;44.838;37.674;2024-03-08T05:32:58;2.42;84.16
78992;DHT22;72820;44.838;37.674;2024-03-08T05:34:00;2.42;83.98
78992;DHT22;72820;44.838;37.674;2024-03-08T05:35:01;2.40;83.87
78992;DHT22;72820;44.838;37.674;2024-03-08T05:36:04;2.37;83.54
78992;DHT22;72820;44.838;37.674;2024-03-08T05:37:05;2.40;83.73
78992;DHT22;72820;44.838;37.674;2024-03-08T05:38:08;2.42;83.38
78992;DHT22;72820;44.838;37.674;2024-03-08T05:39:09;2.33;83.27
78992;DHT22;72820;44.838;37.674;2024-03-08T05:40:12;2.33;83.45
78992;DHT22;72820;44.838;37.674;2024-03-08T05:41:14;2.26;83.14
78992;DHT22;72820;44.838;37.674;2024-03-08T05:42:15;2.23;83.61
78992;DHT22;72820;44.838;37.674;2024-03-08T05:43:17;2.23;83.83
78992;DHT22;72820;44.838;37.674;2024-03-08T05:44:20;2.21;83.51
78992;DHT22;72820;44.838;37.674;2024-03-08T05:45:21;2.23;83.76
78992;DHT22;72820;44.838;37.674;2024-03-08T05:46:23;2.23;83.86
78992;DHT22;72820;44.838;37.674;2024-03-08T05:47:24;2.19;83.52
78992;DHT22;72820;44.838;37.674;2024-03-08T05:48:25;2.14;83.67
78992;DHT22;72820;44.838;37.674;2024-03-08T05:49:27;2.09;83.49
78992;DHT22;72820;44.838;37.674;2024-03-08T05:50:28;2.05;83.72
78992;DHT22;72820;44.838;37.674;2024-03-08T05:51:29;1.98;83.74
78992;DHT22;72820;44.838;37.674;2024-03-08T05:52:31;1.91;84.12
78992;DHT22;72820;44.838;37.674;2024-03-08T05:53:32;1.95;84.57
78992;DHT22;72820;44.838;37.674;2024-03-08T05:54:33;1.96;84.44
78992;DHT22;72820;44.838;37.674;2024-03-08T05:55:35;1.92;84.33
78992;DHT22;72820;44.838;37.674;2024-03-08T05:56:37;1.89;84.62
78992;DHT22;72820;44.838;37.674;2024-03-08T05:57:38;1.91;84.80
78992;DHT22;72820;44.838;37.674;2024-03-08T05:58:40;1.87;84.56
78992;DHT22;72820;44.838;37.674;2024-03-08T05:59:42;1.83;84.44
78992;DHT22;72820;44.838;37.674;2024-03-08T06:00:43;1.79;84.77
78992;DHT22;72820;44.838;37.674;2024-03-08T06:01:47;1.82;85.06
78992;DHT22;72820;44.838;37.674;2024-03-08T06:02:48;1.85;85.20
78992;DHT22;72820;44.838;37.674;2024-03-08T06:03:49;1.83;84.95
78992;DHT22;72820;44.838;37.674;2024-03-08T06:04:51;1.83;85.19
78992;DHT22;72820;44.838;37.674;2024-03-08T06:05:52;1.87;85.37
78992;DHT22;72820;44.838;37.674;2024-03-08T06:06:53;1.86;85.07
78992;DHT22;72820;44.838;37.674;2024-03-08T06:07:56;1.89;85.16
78992;DHT22;72820;44.838;37.674;2024-03-08T06:08:58;1.83;84.85
78992;DHT22;72820;44.838;37.674;2024-03-08T06:10:00;1.82;84.95
78992;DHT22;72820;44.838;37.674;2024-03-08T06:11:01;1.83;85.00
78992;DHT22;72820;44.838;37.674;2024-03-08T06:12:03;1.81;85.31
78992;DHT22;72820;44.838;37.674;2024-03-08T06:13:07;1.81;85.15
78992;DHT22;72820;44.838;37.674;2024-03-08T06:14:08;1.79;85.20
78992;DHT22;72820;44.838;37.674;2024-03-08T06:15:10;1.78;85.40
78992;DHT22;72820;44.838;37.674;2024-03-08T06:16:13;1.81;85.14
78992;DHT22;72820;44.838;37.674;2024-03-08T06:17:15;1.78;85.40
78992;DHT22;72820;44.838;37.674;2024-03-08T06:18:16;1.81;85.55
78992;DHT22;72820;44.838;37.674;2024-03-08T06:19:18;1.81;85.39
78992;DHT22;72820;44.838;37.674;2024-03-08T06:20:20;1.83;85.52
78992;DHT22;72820;44.838;37.674;2024-03-08T06:21:21;1.82;85.09
78992;DHT22;72820;44.838;37.674;2024-03-08T06:22:23;1.79;85.42
78992;DHT22;72820;44.838;37.674;2024-03-08T06:23:25;1.83;85.32
78992;DHT22;72820;44.838;37.674;2024-03-08T06:24:26;1.83;85.46
78992;DHT22;72820;44.838;37.674;2024-03-08T06:25:27;1.85;85.41
78992;DHT22;72820;44.838;37.674;2024-03-08T06:26:29;1.86;85.56
78992;DHT22;72820;44.838;37.674;2024-03-08T06:27:30;1.91;85.44
78992;DHT22;72820;44.838;37.674;2024-03-08T06:28:34;1.92;85.30
78992;DHT22;72820;44.838;37.674;2024-03-08T06:29:36;1.93;85.27
78992;DHT22;72820;44.838;37.674;2024-03-08T06:30:37;1.98;85.36
78992;DHT22;72820;44.838;37.674;2024-03-08T06:31:38;1.98;85.13